Time;durP1;ratioP1;P1;durP2;ratioP2;P2;SDS_P1;SDS_P2;PMS_P1;PMS_P2;Temp;Humidity;BMP_temperature;BMP_pressure;BME280_temperature;BME280_humidity;BME280_pressure;Samples;Min_cycle;Max_cycle;Signal;HPM_P1;HPM_P2
2021/01/24 00:00:25;;;;;;;12.00;7.50;;;;;;;;;;5078954;28;20020;-66
2021/01/24 00:02:51;;;;;;;11.33;7.30;;;;;;;;;;5093209;28;20036;-68
2021/01/24 00:05:16;;;;;;;14.40;8.07;;;;;;;;;;5084099;28;20572;-67
2021/01/24 00:07:42;;;;;;;11.47;6.93;;;;;;;;;;5094009;28;20126;-66
2021/01/24 00:10:07;;;;;;;13.27;7.40;;;;;;;;;;5093704;28;20068;-68
2021/01/24 00:12:32;;;;;;;10.20;6.53;;;;;;;;;;5093239;28;20024;-66
2021/01/24 00:14:58;;;;;;;9.97;7.13;;;;;;;;;;5091834;28;20020;-67
2021/01/24 00:17:23;;;;;;;13.97;7.87;;;;;;;;;;5094667;28;20043;-67
2021/01/24 00:19:48;;;;;;;12.17;7.80;;;;;;;;;;5092567;28;20081;-66
2021/01/24 00:22:13;;;;;;;10.60;7.03;;;;;;;;;;5092943;28;20036;-68
2021/01/24 00:24:39;;;;;;;10.37;6.73;;;;;;;;;;5092323;28;20043;-68
2021/01/24 00:27:04;;;;;;;12.90;7.37;;;;;;;;;;5087226;28;20112;-68
2021/01/24 00:29:29;;;;;;;11.87;6.80;;;;;;;;;;5091779;28;20425;-66
2021/01/24 00:31:55;;;;;;;12.23;7.50;;;;;;;;;;5092186;28;20052;-67
2021/01/24 00:34:20;;;;;;;14.43;8.50;;;;;;;;;;5081938;28;20016;-67
2021/01/24 00:36:45;;;;;;;12.13;8.13;;;;;;;;;;5089236;28;20020;-67
2021/01/24 00:39:11;;;;;;;12.30;8.40;;;;;;;;;;5092484;28;20202;-67
2021/01/24 00:41:36;;;;;;;14.23;8.23;;;;;;;;;;5092583;28;20053;-67
2021/01/24 00:44:01;;;;;;;10.80;7.47;;;;;;;;;;5091652;28;20027;-66
2021/01/24 00:46:27;;;;;;;12.50;7.60;;;;;;;;;;5089542;28;20024;-66
2021/01/24 00:48:52;;;;;;;11.33;7.30;;;;;;;;;;5092801;28;20016;-68
2021/01/24 00:51:18;;;;;;;11.30;7.30;;;;;;;;;;5081247;28;20020;-67
2021/01/24 00:53:43;;;;;;;11.27;7.37;;;;;;;;;;5084880;28;20016;-67
2021/01/24 00:56:08;;;;;;;13.00;7.97;;;;;;;;;;5088539;28;20031;-68
2021/01/24 00:58:33;;;;;;;12.40;8.07;;;;;;;;;;5089323;28;20050;-67
2021/01/24 01:00:59;;;;;;;11.73;7.20;;;;;;;;;;5084286;28;20027;-67
2021/01/24 01:03:24;;;;;;;11.57;7.57;;;;;;;;;;5091688;28;20022;-66
2021/01/24 01:05:49;;;;;;;12.07;8.27;;;;;;;;;;5090333;28;20028;-67
2021/01/24 01:08:14;;;;;;;13.60;7.87;;;;;;;;;;5093675;28;20039;-66
2021/01/24 01:10:40;;;;;;;11.23;7.80;;;;;;;;;;5076984;28;20032;-67
2021/01/24 01:13:05;;;;;;;12.13;7.50;;;;;;;;;;5081359;28;20134;-67
2021/01/24 01:15:31;;;;;;;11.13;7.13;;;;;;;;;;5083802;28;20107;-67
2021/01/24 01:17:56;;;;;;;13.17;8.20;;;;;;;;;;5076584;28;20044;-67
2021/01/24 01:20:21;;;;;;;12.30;7.70;;;;;;;;;;5092484;28;20024;-67
2021/01/24 01:22:46;;;;;;;13.00;7.80;;;;;;;;;;5091633;28;20036;-66
2021/01/24 01:25:12;;;;;;;11.60;7.47;;;;;;;;;;5088648;28;20398;-67
2021/01/24 01:27:37;;;;;;;12.43;7.87;;;;;;;;;;5092512;28;20060;-67
2021/01/24 01:30:04;;;;;;;12.63;7.63;;;;;;;;;;5092537;28;20031;-67
2021/01/24 01:32:29;;;;;;;12.33;8.20;;;;;;;;;;5087701;28;20174;-67
2021/01/24 01:34:55;;;;;;;14.03;8.83;;;;;;;;;;5087479;28;20540;-69
2021/01/24 01:37:20;;;;;;;13.17;8.77;;;;;;;;;;5089616;28;20027;-67
2021/01/24 01:39:45;;;;;;;12.03;8.37;;;;;;;;;;5092709;28;20024;-67
2021/01/24 01:42:11;;;;;;;13.57;8.93;;;;;;;;;;5093097;28;20031;-67
2021/01/24 01:44:37;;;;;;;14.43;9.10;;;;;;;;;;5091894;28;20031;-67
2021/01/24 01:47:02;;;;;;;13.03;8.77;;;;;;;;;;5088872;28;20492;-66
2021/01/24 01:49:27;;;;;;;13.30;9.00;;;;;;;;;;5086733;28;20016;-66
2021/01/24 01:51:52;;;;;;;17.77;10.67;;;;;;;;;;5091023;28;20039;-68
2021/01/24 01:54:18;;;;;;;15.40;10.17;;;;;;;;;;5092920;28;20020;-67
2021/01/24 01:56:43;;;;;;;17.33;11.07;;;;;;;;;;5089995;28;20477;-67
2021/01/24 01:59:08;;;;;;;22.77;13.00;;;;;;;;;;5092643;28;20031;-67
2021/01/24 02:01:50;;;;;;;18.00;12.43;;;;;;;;;;5092235;28;20027;-67
2021/01/24 02:04:36;;;;;;;18.87;12.83;;;;;;;;;;5089582;28;20020;-66
2021/01/24 02:07:05;;;;;;;18.27;11.33;;;;;;;;;;5090829;28;20508;-66
2021/01/24 02:09:38;;;;;;;18.33;12.23;;;;;;;;;;5090757;28;20041;-66
2021/01/24 02:12:22;;;;;;;18.17;12.20;;;;;;;;;;5092383;28;20052;-66
2021/01/24 02:15:13;;;;;;;19.17;12.20;;;;;;;;;;5078397;28;20411;-67
2021/01/24 02:17:42;;;;;;;25.53;14.57;;;;;;;;;;5069829;28;20035;-67
2021/01/24 02:20:20;;;;;;;20.73;12.83;;;;;;;;;;5086838;28;20070;-66
2021/01/24 02:22:47;;;;;;;20.00;13.27;;;;;;;;;;5076431;28;20017;-67
2021/01/24 02:25:12;;;;;;;19.83;11.97;;;;;;;;;;5075826;28;20038;-67
2021/01/24 02:28:00;;;;;;;20.27;12.23;;;;;;;;;;5090394;28;20514;-66
2021/01/24 02:30:28;;;;;;;21.07;12.80;;;;;;;;;;5066051;28;20079;-67
2021/01/24 02:33:05;;;;;;;20.93;12.27;;;;;;;;;;5087982;28;20044;-66
2021/01/24 02:35:31;;;;;;;24.40;13.80;;;;;;;;;;5089041;28;20461;-66
2021/01/24 02:37:58;;;;;;;20.80;13.43;;;;;;;;;;5091267;28;20095;-66
2021/01/24 02:40:23;;;;;;;21.20;12.93;;;;;;;;;;5092091;28;20023;-67
2021/01/24 02:42:49;;;;;;;17.20;10.20;;;;;;;;;;5091545;28;20032;-66
2021/01/24 02:45:16;;;;;;;17.03;10.90;;;;;;;;;;5087931;28;20030;-67
2021/01/24 02:47:41;;;;;;;17.10;10.57;;;;;;;;;;5090728;28;20035;-66
2021/01/24 02:50:07;;;;;;;16.03;10.57;;;;;;;;;;5090094;28;20420;-66
2021/01/24 02:52:32;;;;;;;16.60;10.63;;;;;;;;;;5091559;28;20020;-66
2021/01/24 02:54:58;;;;;;;14.73;8.90;;;;;;;;;;5089044;28;20024;-66
2021/01/24 02:57:23;;;;;;;18.30;11.33;;;;;;;;;;5090942;28;20020;-66
2021/01/24 02:59:49;;;;;;;14.40;9.60;;;;;;;;;;5090769;28;20016;-66
2021/01/24 03:02:14;;;;;;;13.77;9.37;;;;;;;;;;5091414;28;20032;-66
2021/01/24 03:04:40;;;;;;;11.97;8.07;;;;;;;;;;5089970;28;20028;-66
2021/01/24 03:07:05;;;;;;;13.37;8.40;;;;;;;;;;5090695;28;20016;-66
2021/01/24 03:09:31;;;;;;;13.60;8.43;;;;;;;;;;5089433;28;20039;-66
2021/01/24 03:11:58;;;;;;;13.00;8.43;;;;;;;;;;5091088;28;20028;-66
2021/01/24 03:14:26;;;;;;;13.43;8.63;;;;;;;;;;5091371;28;20039;-66
2021/01/24 03:16:56;;;;;;;16.63;10.30;;;;;;;;;;5088355;28;20034;-66
2021/01/24 03:19:23;;;;;;;14.13;9.70;;;;;;;;;;5091685;28;20103;-66
2021/01/24 03:21:49;;;;;;;11.60;7.67;;;;;;;;;;5091104;28;20032;-66
2021/01/24 03:24:16;;;;;;;11.43;7.30;;;;;;;;;;5090166;28;20459;-66
2021/01/24 03:26:41;;;;;;;13.60;8.03;;;;;;;;;;5086958;28;20028;-66
2021/01/24 03:29:07;;;;;;;14.53;8.90;;;;;;;;;;5089437;28;20113;-66
2021/01/24 03:31:32;;;;;;;14.23;9.47;;;;;;;;;;5091396;28;20089;-66
2021/01/24 03:33:58;;;;;;;13.50;8.83;;;;;;;;;;5091239;28;20021;-66
2021/01/24 03:36:23;;;;;;;12.27;8.33;;;;;;;;;;5088372;28;20020;-66
2021/01/24 03:38:48;;;;;;;10.47;7.30;;;;;;;;;;5089369;28;20459;-66
2021/01/24 03:41:13;;;;;;;12.17;7.80;;;;;;;;;;5085402;28;20012;-66
2021/01/24 03:43:39;;;;;;;12.97;8.17;;;;;;;;;;5071187;28;20028;-66
2021/01/24 03:46:04;;;;;;;16.73;9.50;;;;;;;;;;5068455;28;20017;-66
2021/01/24 03:48:29;;;;;;;11.40;7.00;;;;;;;;;;5088995;28;20035;-66
2021/01/24 03:50:55;;;;;;;13.90;9.33;;;;;;;;;;5091258;28;20032;-66
2021/01/24 03:53:20;;;;;;;14.83;8.57;;;;;;;;;;5091139;28;20077;-66
2021/01/24 03:55:45;;;;;;;11.77;8.00;;;;;;;;;;5088153;28;20019;-66
2021/01/24 03:58:10;;;;;;;15.00;9.23;;;;;;;;;;5089769;28;20012;-66
2021/01/24 04:00:36;;;;;;;14.50;8.10;;;;;;;;;;5089637;28;20016;-66
2021/01/24 04:03:01;;;;;;;9.80;6.43;;;;;;;;;;5089696;28;20466;-66
2021/01/24 04:05:26;;;;;;;11.10;6.83;;;;;;;;;;5086951;28;20024;-67
2021/01/24 04:07:51;;;;;;;12.77;8.33;;;;;;;;;;5087083;28;20028;-66
2021/01/24 04:10:16;;;;;;;12.27;7.57;;;;;;;;;;5094070;28;20024;-66
2021/01/24 04:12:42;;;;;;;12.90;7.97;;;;;;;;;;5094895;28;20501;-67
2021/01/24 04:15:07;;;;;;;9.57;6.00;;;;;;;;;;5090289;28;20016;-67
2021/01/24 04:17:32;;;;;;;9.83;6.50;;;;;;;;;;5094773;28;20398;-67
2021/01/24 04:19:58;;;;;;;10.43;6.80;;;;;;;;;;5094428;28;20455;-65
2021/01/24 04:22:23;;;;;;;10.40;7.40;;;;;;;;;;5092634;28;20023;-67
2021/01/24 04:24:48;;;;;;;14.97;9.50;;;;;;;;;;5091429;28;20471;-66
2021/01/24 04:27:13;;;;;;;13.57;8.80;;;;;;;;;;5088926;28;20039;-66
2021/01/24 04:29:39;;;;;;;15.00;9.17;;;;;;;;;;5094554;28;20032;-66
2021/01/24 04:32:04;;;;;;;14.63;9.37;;;;;;;;;;5092787;28;20492;-66
2021/01/24 04:34:29;;;;;;;16.57;10.33;;;;;;;;;;5092567;28;20024;-66
2021/01/24 04:36:54;;;;;;;15.33;9.90;;;;;;;;;;5090872;28;20020;-66
2021/01/24 04:39:19;;;;;;;17.10;10.87;;;;;;;;;;5093865;28;20024;-66
2021/01/24 04:41:46;;;;;;;16.87;10.17;;;;;;;;;;5093509;28;20024;-66
2021/01/24 04:44:11;;;;;;;16.27;9.83;;;;;;;;;;5094471;28;20467;-66
2021/01/24 04:46:37;;;;;;;15.03;9.00;;;;;;;;;;5091320;28;20016;-65
2021/01/24 04:49:03;;;;;;;14.60;8.90;;;;;;;;;;5088666;28;20027;-66
2021/01/24 04:51:28;;;;;;;11.83;8.00;;;;;;;;;;5091605;28;20020;-66
2021/01/24 04:53:54;;;;;;;12.60;7.57;;;;;;;;;;5093815;28;20425;-66
2021/01/24 04:56:20;;;;;;;10.23;6.63;;;;;;;;;;5091330;28;20020;-66
2021/01/24 04:58:45;;;;;;;11.47;7.20;;;;;;;;;;5092592;28;20073;-65
2021/01/24 05:01:11;;;;;;;11.50;8.30;;;;;;;;;;5093857;28;20052;-66
2021/01/24 05:03:36;;;;;;;12.80;8.33;;;;;;;;;;5093892;28;20103;-65
2021/01/24 05:06:01;;;;;;;12.73;8.17;;;;;;;;;;5090796;28;20032;-65
2021/01/24 05:08:29;;;;;;;15.87;10.17;;;;;;;;;;5092962;28;20052;-66
2021/01/24 05:10:55;;;;;;;14.77;9.50;;;;;;;;;;5089504;28;20067;-66
2021/01/24 05:13:26;;;;;;;14.03;9.60;;;;;;;;;;5089249;28;20055;-65
2021/01/24 05:15:54;;;;;;;14.13;9.97;;;;;;;;;;5089629;28;20024;-65
2021/01/24 05:18:20;;;;;;;13.67;9.90;;;;;;;;;;5091278;28;20493;-65
2021/01/24 05:20:46;;;;;;;17.80;10.83;;;;;;;;;;5092255;28;20024;-66
2021/01/24 05:23:12;;;;;;;15.50;11.23;;;;;;;;;;5093157;28;20092;-65
2021/01/24 05:25:38;;;;;;;14.57;10.03;;;;;;;;;;5089367;28;20024;-65
2021/01/24 05:28:23;;;;;;;15.07;10.17;;;;;;;;;;5092949;28;20062;-65
2021/01/24 05:30:49;;;;;;;13.15;8.65;;;;;;;;;;5072721;28;20025;-66
2021/01/24 05:33:18;;;;;;;8.97;6.03;;;;;;;;;;5092083;28;20040;-66
2021/01/24 05:35:50;;;;;;;11.17;6.67;;;;;;;;;;5081847;28;20055;-66
2021/01/24 05:38:21;;;;;;;8.03;6.10;;;;;;;;;;5092611;28;20031;-66
2021/01/24 05:40:46;;;;;;;11.83;7.60;;;;;;;;;;5093035;28;20056;-66
2021/01/24 05:43:11;;;;;;;10.97;7.03;;;;;;;;;;5092044;28;20051;-66
2021/01/24 05:45:37;;;;;;;10.93;6.53;;;;;;;;;;5090022;28;20500;-66
2021/01/24 05:48:04;;;;;;;8.60;5.83;;;;;;;;;;5092588;28;20047;-65
2021/01/24 05:50:29;;;;;;;9.83;6.67;;;;;;;;;;5091791;28;20482;-66
2021/01/24 05:52:54;;;;;;;9.80;6.67;;;;;;;;;;5092560;28;20020;-65
2021/01/24 05:55:32;;;;;;;9.70;6.60;;;;;;;;;;5090101;28;20016;-65
2021/01/24 05:57:58;;;;;;;10.50;6.53;;;;;;;;;;5092935;28;20152;-65
2021/01/24 06:00:24;;;;;;;10.83;6.90;;;;;;;;;;5093029;28;20012;-65
2021/01/24 06:02:49;;;;;;;10.93;6.30;;;;;;;;;;5092677;28;20422;-65
2021/01/24 06:05:15;;;;;;;11.80;7.57;;;;;;;;;;5088531;28;20036;-65
2021/01/24 06:07:40;;;;;;;9.30;5.93;;;;;;;;;;5090989;28;20048;-64
2021/01/24 06:10:05;;;;;;;9.07;6.17;;;;;;;;;;5092734;28;20012;-65
2021/01/24 06:12:34;;;;;;;9.40;6.23;;;;;;;;;;5090769;28;20372;-64
2021/01/24 06:15:02;;;;;;;9.27;6.13;;;;;;;;;;5087678;28;20138;-65
2021/01/24 06:17:36;;;;;;;8.63;5.57;;;;;;;;;;5092245;28;20009;-66
2021/01/24 06:20:03;;;;;;;7.70;5.33;;;;;;;;;;5092394;28;20023;-65
2021/01/24 06:22:32;;;;;;;8.77;5.17;;;;;;;;;;5091909;28;20111;-65
2021/01/24 06:24:59;;;;;;;7.37;4.87;;;;;;;;;;5089155;28;20032;-66
2021/01/24 06:27:26;;;;;;;7.77;5.17;;;;;;;;;;5091130;28;20040;-66
2021/01/24 06:29:53;;;;;;;7.13;5.10;;;;;;;;;;5087356;28;20387;-65
2021/01/24 06:32:26;;;;;;;8.07;5.37;;;;;;;;;;5090350;28;20028;-65
2021/01/24 06:34:52;;;;;;;10.17;6.13;;;;;;;;;;5089164;28;20012;-66
2021/01/24 06:37:19;;;;;;;8.70;6.00;;;;;;;;;;5090250;28;20085;-64
2021/01/24 06:39:55;;;;;;;9.30;6.03;;;;;;;;;;5091480;28;20360;-65
2021/01/24 06:42:36;;;;;;;9.17;6.03;;;;;;;;;;5090705;28;20482;-65
2021/01/24 06:45:03;;;;;;;10.37;6.27;;;;;;;;;;5087258;28;20065;-66
2021/01/24 06:47:41;;;;;;;10.67;5.60;;;;;;;;;;5091523;28;20047;-65
2021/01/24 06:50:26;;;;;;;9.37;6.40;;;;;;;;;;5091974;28;20504;-65
2021/01/24 06:53:01;;;;;;;8.52;5.32;;;;;;;;;;5090665;28;20093;-65
2021/01/24 06:55:27;;;;;;;9.70;5.88;;;;;;;;;;5087655;28;20510;-67
2021/01/24 06:57:52;;;;;;;8.50;5.70;;;;;;;;;;5090332;28;20051;-66
2021/01/24 07:00:20;;;;;;;9.43;5.40;;;;;;;;;;5091774;28;20085;-66
2021/01/24 07:02:45;;;;;;;10.20;5.93;;;;;;;;;;5076487;28;20146;-65
2021/01/24 07:05:23;;;;;;;9.30;5.77;;;;;;;;;;5068930;28;20032;-65
2021/01/24 07:07:49;;;;;;;7.87;5.03;;;;;;;;;;5083145;28;20024;-65
2021/01/24 07:10:33;;;;;;;9.37;5.30;;;;;;;;;;5091466;28;20042;-65
2021/01/24 07:12:58;;;;;;;10.87;6.50;;;;;;;;;;5080809;28;20020;-65
2021/01/24 07:15:24;;;;;;;8.90;5.20;;;;;;;;;;5087442;28;20049;-65
2021/01/24 07:17:53;;;;;;;10.23;4.90;;;;;;;;;;5087214;28;20016;-65
2021/01/24 07:20:18;;;;;;;9.17;5.30;;;;;;;;;;5091675;28;20027;-66
2021/01/24 07:22:44;;;;;;;10.97;5.70;;;;;;;;;;5091108;28;20020;-65
2021/01/24 07:25:10;;;;;;;8.73;5.03;;;;;;;;;;5088827;28;20526;-65
2021/01/24 07:27:35;;;;;;;9.07;4.53;;;;;;;;;;5088263;28;20120;-66
2021/01/24 07:30:00;;;;;;;9.50;5.00;;;;;;;;;;5075773;28;20023;-66
2021/01/24 07:32:26;;;;;;;8.53;4.43;;;;;;;;;;5090200;28;20065;-66
2021/01/24 07:34:52;;;;;;;10.27;5.67;;;;;;;;;;5087824;28;20055;-66
2021/01/24 07:37:18;;;;;;;11.90;5.80;;;;;;;;;;5090521;28;20062;-66
2021/01/24 07:39:44;;;;;;;8.47;5.33;;;;;;;;;;5075425;28;20439;-66
2021/01/24 07:42:10;;;;;;;8.63;4.97;;;;;;;;;;5081432;28;20020;-66
2021/01/24 07:44:36;;;;;;;10.00;5.40;;;;;;;;;;5085702;28;20021;-67
2021/01/24 07:47:02;;;;;;;10.00;4.77;;;;;;;;;;5093395;28;20474;-66
2021/01/24 07:49:27;;;;;;;10.63;6.17;;;;;;;;;;5094883;28;20046;-67
2021/01/24 07:51:52;;;;;;;10.87;7.00;;;;;;;;;;5085668;28;20028;-67
2021/01/24 07:54:18;;;;;;;11.00;6.50;;;;;;;;;;5094445;28;20032;-67
2021/01/24 07:56:43;;;;;;;12.83;7.23;;;;;;;;;;5088338;28;20016;-67
2021/01/24 07:59:09;;;;;;;11.77;6.73;;;;;;;;;;5074432;28;20035;-67
2021/01/24 08:01:35;;;;;;;12.77;6.87;;;;;;;;;;5081044;28;20012;-67
2021/01/24 08:04:01;;;;;;;15.60;8.73;;;;;;;;;;5091675;28;20370;-67
2021/01/24 08:06:27;;;;;;;16.23;8.20;;;;;;;;;;5075384;28;20457;-67
2021/01/24 08:08:52;;;;;;;15.17;8.10;;;;;;;;;;5089411;28;20052;-67
2021/01/24 08:11:17;;;;;;;15.90;7.97;;;;;;;;;;5072795;28;20380;-67
2021/01/24 08:13:43;;;;;;;17.50;8.37;;;;;;;;;;5087976;28;20455;-67
2021/01/24 08:16:20;;;;;;;14.80;7.77;;;;;;;;;;5090924;28;20020;-67
2021/01/24 08:18:46;;;;;;;17.00;8.77;;;;;;;;;;5093611;28;20236;-68
2021/01/24 08:21:13;;;;;;;15.70;8.07;;;;;;;;;;5093692;28;20060;-68
2021/01/24 08:23:38;;;;;;;16.40;9.40;;;;;;;;;;5092194;28;20031;-67
2021/01/24 08:26:05;;;;;;;16.13;8.17;;;;;;;;;;5091226;28;20379;-67
2021/01/24 08:28:31;;;;;;;14.53;8.20;;;;;;;;;;5091908;28;20047;-66
2021/01/24 08:30:59;;;;;;;17.13;8.83;;;;;;;;;;5093377;28;20068;-66
2021/01/24 08:33:25;;;;;;;16.27;8.53;;;;;;;;;;5092907;28;20106;-66
2021/01/24 08:35:50;;;;;;;16.53;8.17;;;;;;;;;;5090610;28;20443;-66
2021/01/24 08:38:16;;;;;;;13.17;7.13;;;;;;;;;;5093276;28;20020;-65
2021/01/24 08:40:41;;;;;;;15.30;7.77;;;;;;;;;;5093222;28;20027;-65
2021/01/24 08:43:06;;;;;;;10.80;6.70;;;;;;;;;;5093466;28;20028;-66
2021/01/24 08:45:32;;;;;;;14.00;7.10;;;;;;;;;;5090626;28;20047;-66
2021/01/24 08:47:59;;;;;;;12.73;7.70;;;;;;;;;;5093446;28;20099;-66
2021/01/24 08:50:29;;;;;;;9.90;6.57;;;;;;;;;;5090843;28;20020;-66
2021/01/24 08:52:54;;;;;;;11.73;6.43;;;;;;;;;;5090884;28;20348;-66
2021/01/24 08:55:20;;;;;;;13.03;7.50;;;;;;;;;;5079508;28;20017;-66
2021/01/24 08:57:45;;;;;;;14.00;7.50;;;;;;;;;;5080702;28;20008;-65
2021/01/24 09:00:10;;;;;;;15.67;8.00;;;;;;;;;;5079498;28;20020;-66
2021/01/24 09:02:37;;;;;;;13.43;7.67;;;;;;;;;;5088864;28;20031;-67
2021/01/24 09:05:06;;;;;;;13.13;8.10;;;;;;;;;;5089419;28;20008;-66
2021/01/24 09:07:38;;;;;;;12.77;7.30;;;;;;;;;;5090697;28;20447;-66
2021/01/24 09:10:17;;;;;;;12.87;7.70;;;;;;;;;;5089478;28;20486;-67
2021/01/24 09:12:43;;;;;;;12.63;7.47;;;;;;;;;;5087654;28;20027;-68
2021/01/24 09:15:08;;;;;;;12.20;7.57;;;;;;;;;;5078261;28;20016;-67
2021/01/24 09:17:34;;;;;;;12.33;7.10;;;;;;;;;;5072147;28;20063;-67
2021/01/24 09:19:59;;;;;;;12.27;6.37;;;;;;;;;;5082343;28;20417;-67
2021/01/24 09:22:24;;;;;;;11.37;6.87;;;;;;;;;;5092578;28;20467;-66
2021/01/24 09:24:49;;;;;;;10.43;5.80;;;;;;;;;;5086496;28;20020;-66
2021/01/24 09:27:15;;;;;;;10.80;6.23;;;;;;;;;;5090801;28;20043;-66
2021/01/24 09:29:41;;;;;;;11.67;7.70;;;;;;;;;;5092315;28;20747;-66
2021/01/24 09:32:06;;;;;;;9.90;6.63;;;;;;;;;;5092868;28;20035;-66
2021/01/24 09:34:32;;;;;;;9.27;5.80;;;;;;;;;;5091796;28;20024;-66
2021/01/24 09:36:57;;;;;;;8.87;6.20;;;;;;;;;;5091023;28;20356;-66
2021/01/24 09:39:22;;;;;;;8.33;5.67;;;;;;;;;;5092064;28;20146;-66
2021/01/24 09:41:48;;;;;;;10.70;5.87;;;;;;;;;;5091051;28;20355;-67
2021/01/24 09:44:13;;;;;;;10.20;6.47;;;;;;;;;;5084726;28;20023;-66
2021/01/24 09:46:39;;;;;;;8.83;5.97;;;;;;;;;;5090401;28;20064;-66
2021/01/24 09:49:04;;;;;;;6.60;4.97;;;;;;;;;;5080913;28;20028;-66
2021/01/24 09:51:30;;;;;;;9.83;5.80;;;;;;;;;;5074132;28;20463;-66
2021/01/24 09:53:56;;;;;;;6.43;4.10;;;;;;;;;;5087872;28;20031;-66
2021/01/24 09:56:22;;;;;;;5.83;4.23;;;;;;;;;;5090684;28;20474;-66
2021/01/24 09:58:47;;;;;;;6.43;4.30;;;;;;;;;;5082229;28;20024;-67
2021/01/24 10:01:12;;;;;;;4.97;3.97;;;;;;;;;;5083596;28;20070;-66
2021/01/24 10:03:38;;;;;;;5.93;3.60;;;;;;;;;;5090096;28;20316;-66
2021/01/24 10:06:04;;;;;;;5.67;3.10;;;;;;;;;;5090019;28;20470;-66
2021/01/24 10:08:29;;;;;;;4.20;3.20;;;;;;;;;;5091173;28;20034;-65
2021/01/24 10:10:54;;;;;;;5.27;3.17;;;;;;;;;;5092138;28;20551;-66
2021/01/24 10:13:20;;;;;;;5.47;3.57;;;;;;;;;;5091678;28;20118;-66
2021/01/24 10:15:48;;;;;;;4.03;2.57;;;;;;;;;;5070996;28;20029;-66
2021/01/24 10:18:14;;;;;;;5.07;2.73;;;;;;;;;;5069940;28;20016;-66
2021/01/24 10:20:40;;;;;;;3.63;2.10;;;;;;;;;;5071554;28;20021;-66
2021/01/24 10:23:05;;;;;;;2.63;2.43;;;;;;;;;;5088067;28;20016;-65
2021/01/24 10:25:30;;;;;;;2.90;2.37;;;;;;;;;;5088705;28;20181;-65
2021/01/24 10:27:55;;;;;;;2.30;2.00;;;;;;;;;;5090715;28;20051;-68
2021/01/24 10:30:21;;;;;;;2.20;2.00;;;;;;;;;;5091706;28;20368;-67
2021/01/24 10:32:46;;;;;;;2.43;2.23;;;;;;;;;;5090982;28;20028;-67
2021/01/24 10:35:11;;;;;;;3.27;1.57;;;;;;;;;;5087149;28;20102;-66
2021/01/24 10:37:36;;;;;;;2.83;1.53;;;;;;;;;;5087580;28;20012;-66
2021/01/24 10:40:03;;;;;;;0.83;0.40;;;;;;;;;;5091448;28;20008;-66
2021/01/24 10:42:28;;;;;;;2.13;1.80;;;;;;;;;;5091007;28;20041;-66
2021/01/24 10:44:54;;;;;;;3.40;2.30;;;;;;;;;;5088586;28;20550;-65
2021/01/24 10:47:19;;;;;;;3.40;2.30;;;;;;;;;;5091915;28;20137;-65
2021/01/24 10:49:44;;;;;;;3.40;2.13;;;;;;;;;;5091204;28;20595;-65
2021/01/24 10:52:09;;;;;;;2.63;1.43;;;;;;;;;;5090401;28;20050;-65
2021/01/24 10:54:35;;;;;;;2.70;1.30;;;;;;;;;;5080841;28;20027;-66
2021/01/24 10:57:00;;;;;;;1.43;1.33;;;;;;;;;;5069811;28;20047;-66
2021/01/24 10:59:25;;;;;;;2.03;1.13;;;;;;;;;;5079297;28;20081;-67
2021/01/24 11:01:51;;;;;;;3.53;2.03;;;;;;;;;;5089816;28;20024;-66
2021/01/24 11:04:16;;;;;;;2.40;2.20;;;;;;;;;;5090776;28;20069;-67
2021/01/24 11:06:41;;;;;;;1.60;1.13;;;;;;;;;;5088430;28;20443;-65
2021/01/24 11:09:06;;;;;;;2.17;1.40;;;;;;;;;;5089320;28;20077;-65
2021/01/24 11:11:32;;;;;;;2.13;1.37;;;;;;;;;;5086287;28;20029;-66
2021/01/24 11:13:57;;;;;;;1.57;1.47;;;;;;;;;;5082865;28;20111;-65
2021/01/24 11:16:22;;;;;;;2.40;1.30;;;;;;;;;;5083020;28;20110;-65
2021/01/24 11:18:47;;;;;;;1.10;1.00;;;;;;;;;;5088764;28;20465;-65
2021/01/24 11:21:13;;;;;;;1.00;0.90;;;;;;;;;;5088487;28;20020;-64
2021/01/24 11:23:38;;;;;;;0.50;0.30;;;;;;;;;;5089494;28;20068;-65
2021/01/24 11:26:03;;;;;;;3.13;0.90;;;;;;;;;;5087394;28;20390;-64
2021/01/24 11:28:28;;;;;;;1.23;0.57;;;;;;;;;;5089255;28;20036;-64
2021/01/24 11:30:54;;;;;;;0.70;0.60;;;;;;;;;;5087949;28;20035;-66
2021/01/24 11:33:19;;;;;;;0.70;0.60;;;;;;;;;;5089803;28;20116;-65
2021/01/24 11:35:44;;;;;;;0.60;0.47;;;;;;;;;;5087076;28;20851;-65
2021/01/24 11:38:09;;;;;;;2.53;0.40;;;;;;;;;;5088688;28;20456;-64
2021/01/24 11:40:34;;;;;;;0.60;0.40;;;;;;;;;;5090203;28;20627;-64
2021/01/24 11:43:00;;;;;;;1.07;0.30;;;;;;;;;;5085289;28;20020;-65
2021/01/24 11:45:25;;;;;;;0.60;0.30;;;;;;;;;;5083673;28;20230;-66
2021/01/24 11:47:52;;;;;;;0.73;0.30;;;;;;;;;;5090300;28;20063;-64
2021/01/24 11:50:17;;;;;;;1.60;0.33;;;;;;;;;;5090472;28;20486;-63
2021/01/24 11:52:42;;;;;;;1.33;0.20;;;;;;;;;;5089601;28;20016;-64
2021/01/24 11:55:08;;;;;;;1.17;0.20;;;;;;;;;;5084106;28;20047;-64
2021/01/24 11:57:33;;;;;;;0.67;0.30;;;;;;;;;;5085935;28;20032;-65
2021/01/24 11:59:58;;;;;;;0.77;0.40;;;;;;;;;;5089808;28;20034;-65
2021/01/24 12:02:25;;;;;;;0.50;0.30;;;;;;;;;;5084220;28;20021;-66
2021/01/24 12:04:50;;;;;;;1.73;0.40;;;;;;;;;;5087712;28;20639;-65
2021/01/24 12:07:16;;;;;;;1.60;0.60;;;;;;;;;;5089403;28;20062;-65
2021/01/24 12:09:41;;;;;;;1.37;0.53;;;;;;;;;;5073854;28;20027;-65
2021/01/24 12:12:07;;;;;;;0.83;0.40;;;;;;;;;;5089091;28;20024;-65
2021/01/24 12:14:32;;;;;;;0.80;0.80;;;;;;;;;;5076514;28;20017;-65
2021/01/24 12:16:57;;;;;;;0.87;0.50;;;;;;;;;;5086617;28;20019;-66
2021/01/24 12:19:22;;;;;;;0.70;0.50;;;;;;;;;;5090608;28;20020;-66
2021/01/24 12:21:47;;;;;;;1.10;0.23;;;;;;;;;;5090697;28;20013;-65
2021/01/24 12:24:13;;;;;;;1.93;0.60;;;;;;;;;;5089969;28;20374;-66
2021/01/24 12:26:38;;;;;;;0.90;0.70;;;;;;;;;;5085753;28;20493;-64
2021/01/24 12:29:03;;;;;;;0.77;0.50;;;;;;;;;;5090150;28;20039;-65
2021/01/24 12:31:28;;;;;;;0.50;0.47;;;;;;;;;;5090232;28;20490;-66
2021/01/24 12:33:54;;;;;;;0.83;0.40;;;;;;;;;;5082603;28;20048;-65
2021/01/24 12:36:19;;;;;;;0.90;0.80;;;;;;;;;;5075701;28;20494;-66
2021/01/24 12:38:44;;;;;;;1.20;0.60;;;;;;;;;;5092021;28;20019;-66
2021/01/24 12:41:09;;;;;;;1.17;0.70;;;;;;;;;;5092985;28;20442;-66
2021/01/24 12:43:34;;;;;;;0.80;0.50;;;;;;;;;;5090778;28;20101;-66
2021/01/24 12:46:00;;;;;;;2.10;0.60;;;;;;;;;;5088916;28;20173;-66
2021/01/24 12:48:25;;;;;;;1.10;0.40;;;;;;;;;;5093042;28;20489;-67
2021/01/24 12:50:50;;;;;;;0.73;0.50;;;;;;;;;;5093555;28;20018;-67
2021/01/24 12:53:15;;;;;;;1.17;0.60;;;;;;;;;;5093116;28;20020;-66
2021/01/24 12:55:40;;;;;;;0.90;0.40;;;;;;;;;;5090367;28;20024;-67
2021/01/24 12:58:06;;;;;;;0.90;0.60;;;;;;;;;;5086458;28;20103;-66
2021/01/24 13:00:31;;;;;;;0.50;0.50;;;;;;;;;;5080055;28;20019;-66
2021/01/24 13:02:56;;;;;;;0.60;0.50;;;;;;;;;;5092353;28;20035;-67
2021/01/24 13:05:21;;;;;;;0.70;0.50;;;;;;;;;;5090854;28;20103;-66
2021/01/24 13:07:47;;;;;;;0.80;0.50;;;;;;;;;;5085290;28;20058;-67
2021/01/24 13:10:12;;;;;;;0.70;0.30;;;;;;;;;;5089857;28;20024;-69
2021/01/24 13:12:37;;;;;;;0.67;0.50;;;;;;;;;;5092350;28;20425;-67
2021/01/24 13:15:04;;;;;;;2.10;0.23;;;;;;;;;;5087178;28;20035;-68
2021/01/24 13:17:29;;;;;;;1.07;0.50;;;;;;;;;;5093020;28;20016;-67
2021/01/24 13:19:54;;;;;;;1.07;0.60;;;;;;;;;;5079369;28;20016;-68
2021/01/24 13:22:19;;;;;;;1.20;0.70;;;;;;;;;;5081983;28;20066;-67
2021/01/24 13:24:44;;;;;;;0.60;0.50;;;;;;;;;;5085160;28;20376;-68
2021/01/24 13:27:10;;;;;;;0.63;0.57;;;;;;;;;;5083921;28;20101;-70
2021/01/24 13:29:35;;;;;;;0.70;0.33;;;;;;;;;;5092039;28;20393;-68
2021/01/24 13:32:00;;;;;;;0.60;0.30;;;;;;;;;;5091839;28;20382;-68
2021/01/24 13:34:25;;;;;;;0.33;0.23;;;;;;;;;;5092474;28;20019;-69
2021/01/24 13:36:50;;;;;;;0.40;0.20;;;;;;;;;;5090581;28;20016;-70
2021/01/24 13:39:16;;;;;;;0.97;0.47;;;;;;;;;;5091117;28;20012;-69
2021/01/24 13:41:41;;;;;;;0.37;0.30;;;;;;;;;;5083541;28;20020;-69
2021/01/24 13:44:06;;;;;;;0.30;0.30;;;;;;;;;;5086516;28;20019;-69
2021/01/24 13:46:31;;;;;;;0.70;0.57;;;;;;;;;;5085627;28;20024;-68
2021/01/24 13:48:57;;;;;;;0.87;0.50;;;;;;;;;;5084188;28;20019;-68
2021/01/24 13:51:22;;;;;;;0.33;0.30;;;;;;;;;;5085460;28;20016;-68
2021/01/24 13:53:47;;;;;;;0.77;0.43;;;;;;;;;;5081316;28;20028;-68
2021/01/24 13:56:12;;;;;;;0.97;0.60;;;;;;;;;;5087016;28;20103;-68
2021/01/24 13:58:37;;;;;;;1.20;0.50;;;;;;;;;;5083335;28;20012;-67
2021/01/24 14:01:03;;;;;;;1.03;0.60;;;;;;;;;;5086224;28;20077;-67
2021/01/24 14:03:28;;;;;;;1.30;0.60;;;;;;;;;;5085860;28;20077;-67
2021/01/24 14:05:53;;;;;;;0.97;0.50;;;;;;;;;;5077930;28;20028;-67
2021/01/24 14:08:19;;;;;;;0.97;0.53;;;;;;;;;;5082944;28;20054;-67
2021/01/24 14:10:44;;;;;;;0.70;0.70;;;;;;;;;;5083497;28;20368;-66
2021/01/24 14:13:09;;;;;;;1.83;0.53;;;;;;;;;;5086573;28;20031;-67
2021/01/24 14:15:34;;;;;;;0.87;0.20;;;;;;;;;;5079914;28;20386;-67
2021/01/24 14:18:00;;;;;;;0.60;0.40;;;;;;;;;;5083017;28;20652;-68
2021/01/24 14:20:26;;;;;;;0.83;0.60;;;;;;;;;;5082773;28;20016;-67
2021/01/24 14:22:51;;;;;;;0.80;0.40;;;;;;;;;;5082453;28;20020;-67
2021/01/24 14:25:17;;;;;;;1.00;0.70;;;;;;;;;;5084526;28;20136;-67
2021/01/24 14:27:42;;;;;;;0.43;0.40;;;;;;;;;;5082961;28;20042;-67